createdAt,value
2023-04-27T00:01:58.118Z,75.20
2023-04-27T00:04:25.300Z,75.20
2023-04-27T00:06:52.490Z,75.20
2023-04-27T00:09:19.477Z,75.20
2023-04-27T00:11:46.480Z,75.20
2023-04-27T00:14:13.482Z,75.20
2023-04-27T00:16:40.612Z,75.10
2023-04-27T00:19:08.980Z,75.10
2023-04-27T00:21:36.013Z,75.20
2023-04-27T00:24:02.969Z,75.20
2023-04-27T00:26:29.952Z,75.40
2023-04-27T00:28:57.161Z,75.40
2023-04-27T00:31:24.763Z,75.30
2023-04-27T00:33:51.773Z,75.30
2023-04-27T00:36:18.715Z,75.20
2023-04-27T00:38:48.305Z,75.20
2023-04-27T00:41:15.432Z,75.20
2023-04-27T00:43:46.563Z,75.20
2023-04-27T00:46:14.241Z,75.20
2023-04-27T00:48:41.883Z,75.20
2023-04-27T00:51:09.104Z,75.20
2023-04-27T00:53:36.913Z,75.20
2023-04-27T00:56:06.539Z,75.20
2023-04-27T00:58:33.540Z,75.20
2023-04-27T01:01:01.280Z,75.10
2023-04-27T01:03:28.680Z,75.10
2023-04-27T01:05:57.033Z,75.10
2023-04-27T01:08:24.654Z,75.00
2023-04-27T01:10:51.814Z,75.00
2023-04-27T01:13:19.013Z,75.00
2023-04-27T01:15:46.114Z,75.00
2023-04-27T01:18:13.876Z,75.00
2023-04-27T01:20:42.315Z,74.90
2023-04-27T01:23:16.639Z,74.90
2023-04-27T01:25:44.180Z,74.80
2023-04-27T01:28:11.156Z,74.70
2023-04-27T01:30:38.204Z,74.70
2023-04-27T01:33:05.224Z,74.60
2023-04-27T01:35:32.187Z,74.60
2023-04-27T01:38:00.593Z,74.50
2023-04-27T01:40:27.627Z,74.50
2023-04-27T01:42:54.687Z,74.50
2023-04-27T01:45:21.741Z,74.50
2023-04-27T01:47:52.256Z,74.60
2023-04-27T01:50:20.796Z,74.70
2023-04-27T01:52:47.902Z,74.60
2023-04-27T01:55:15.007Z,74.60
2023-04-27T01:57:42.599Z,74.60
2023-04-27T02:00:10.128Z,74.60
2023-04-27T02:02:51.190Z,74.60
2023-04-27T02:05:18.509Z,74.50
2023-04-27T02:07:46.544Z,74.50
2023-04-27T02:10:13.479Z,74.60
2023-04-27T02:12:40.629Z,74.70
2023-04-27T02:15:09.015Z,74.80
2023-04-27T02:17:36.032Z,74.70
2023-04-27T02:20:03.175Z,74.70
2023-04-27T02:22:30.069Z,74.80
2023-04-27T02:24:57.093Z,74.80
2023-04-27T02:27:24.070Z,74.80
2023-04-27T02:29:51.489Z,74.90
2023-04-27T02:32:18.959Z,74.90
2023-04-27T02:34:45.908Z,74.90
2023-04-27T02:37:12.847Z,74.80
2023-04-27T02:39:39.781Z,74.90
2023-04-27T02:42:06.728Z,74.80
2023-04-27T02:44:33.711Z,74.70
2023-04-27T02:47:01.142Z,74.60
2023-04-27T02:49:28.121Z,74.60
2023-04-27T02:51:55.088Z,74.60
2023-04-27T02:54:22.079Z,74.60
2023-04-27T02:56:49.022Z,74.60
2023-04-27T02:59:16.184Z,74.70
2023-04-27T03:01:43.602Z,74.70
2023-04-27T03:04:11.139Z,74.70
2023-04-27T03:06:38.414Z,74.80
2023-04-27T03:09:05.508Z,74.80
2023-04-27T03:11:32.704Z,74.90
2023-04-27T03:13:59.638Z,75.00
2023-04-27T03:16:28.044Z,75.00
2023-04-27T03:18:55.300Z,75.10
2023-04-27T03:21:22.276Z,75.20
2023-04-27T03:23:49.614Z,75.20
2023-04-27T03:26:17.029Z,75.20
2023-04-27T03:28:44.003Z,75.20
2023-04-27T03:31:13.125Z,75.10
2023-04-27T03:33:41.275Z,75.10
2023-04-27T03:36:09.446Z,75.00
2023-04-27T03:38:37.057Z,75.00
2023-04-27T03:41:04.585Z,75.00
2023-04-27T03:43:31.548Z,75.10
2023-04-27T03:45:58.725Z,75.10
2023-04-27T03:48:26.275Z,75.10
2023-04-27T03:50:55.325Z,75.10
2023-04-27T03:53:22.349Z,75.00
2023-04-27T03:55:50.321Z,74.90
2023-04-27T03:58:17.998Z,75.00
2023-04-27T04:01:10.206Z,74.90
2023-04-27T04:03:37.772Z,74.90
2023-04-27T04:06:07.817Z,75.00
2023-04-27T04:08:34.882Z,75.10
2023-04-27T04:11:01.977Z,75.10
2023-04-27T04:13:29.746Z,75.00
2023-04-27T04:16:06.551Z,74.90
2023-04-27T04:18:34.909Z,74.90
2023-04-27T04:21:02.565Z,74.70
2023-04-27T04:23:29.660Z,74.60
2023-04-27T04:25:56.856Z,74.70
2023-04-27T04:28:26.337Z,74.60
2023-04-27T04:30:53.443Z,74.50
2023-04-27T04:33:20.575Z,74.40
2023-04-27T04:35:47.796Z,74.40
2023-04-27T04:38:14.804Z,74.30
2023-04-27T04:40:44.436Z,74.30
2023-04-27T04:43:13.599Z,74.10
2023-04-27T04:45:42.667Z,74.10
2023-04-27T04:48:10.393Z,73.80
2023-04-27T04:50:39.286Z,73.60
2023-04-27T04:53:06.563Z,73.40
2023-04-27T04:55:33.785Z,73.20
2023-04-27T04:58:00.846Z,73.10
2023-04-27T05:00:28.664Z,72.90
2023-04-27T05:02:55.816Z,72.80
2023-04-27T05:05:22.912Z,71.40
2023-04-27T05:07:49.916Z,69.50
2023-04-27T05:10:16.953Z,67.80
2023-04-27T05:12:44.596Z,67.50
2023-04-27T05:15:11.954Z,66.50
2023-04-27T05:17:38.964Z,64.70
2023-04-27T05:20:07.148Z,63.00
2023-04-27T05:22:34.067Z,61.00
2023-04-27T05:25:01.130Z,59.30
2023-04-27T05:27:28.104Z,58.10
2023-04-27T05:29:55.011Z,56.90
2023-04-27T05:32:22.038Z,55.60
2023-04-27T05:34:49.662Z,54.30
2023-04-27T05:37:16.710Z,53.40
2023-04-27T05:39:43.666Z,52.30
2023-04-27T05:42:10.604Z,51.30
2023-04-27T05:44:37.611Z,50.60
2023-04-27T05:47:04.503Z,50.00
2023-04-27T05:49:31.702Z,48.90
2023-04-27T05:51:59.130Z,48.60
2023-04-27T05:54:27.572Z,48.30
2023-04-27T05:56:54.575Z,46.60
2023-04-27T05:59:21.944Z,46.00
2023-04-27T06:01:49.007Z,45.40
2023-04-27T06:04:16.272Z,44.70
2023-04-27T06:06:44.803Z,43.90
2023-04-27T06:09:11.894Z,43.50
2023-04-27T06:11:38.938Z,42.50
2023-04-27T06:14:05.794Z,41.90
2023-04-27T06:16:32.668Z,41.10
2023-04-27T06:18:59.669Z,40.20
2023-04-27T06:21:26.603Z,39.90
2023-04-27T06:23:53.488Z,39.50
2023-04-27T06:26:20.608Z,38.50
2023-04-27T06:28:47.452Z,38.00
2023-04-27T06:31:14.311Z,38.30
2023-04-27T06:33:41.898Z,38.40
2023-04-27T06:36:09.085Z,37.60
2023-04-27T06:38:36.033Z,37.40
2023-04-27T06:41:03.337Z,36.80
2023-04-27T06:43:30.893Z,36.30
2023-04-27T06:45:57.744Z,35.20
2023-04-27T06:48:24.668Z,35.10
2023-04-27T06:50:52.339Z,34.90
2023-04-27T06:53:19.171Z,34.30
2023-04-27T06:55:48.282Z,33.30
2023-04-27T06:58:15.412Z,33.10
2023-04-27T07:00:42.353Z,32.10
2023-04-27T07:03:09.431Z,31.60
2023-04-27T07:05:36.396Z,30.10
2023-04-27T07:08:06.166Z,28.80
2023-04-27T07:10:35.220Z,27.30
2023-04-27T07:13:02.110Z,27.40
2023-04-27T07:15:30.504Z,26.00
2023-04-27T07:17:57.370Z,25.50
2023-04-27T07:20:24.268Z,23.80
2023-04-27T07:22:51.238Z,23.50
2023-04-27T07:25:18.045Z,23.70
2023-04-27T07:27:45.366Z,23.50
2023-04-27T07:30:14.150Z,22.70
2023-04-27T07:32:44.273Z,22.70
2023-04-27T07:35:11.209Z,23.20
2023-04-27T07:37:38.463Z,22.80
2023-04-27T07:40:14.459Z,22.50
2023-04-27T07:42:42.142Z,22.80
2023-04-27T07:45:09.629Z,22.40
2023-04-27T07:47:36.645Z,22.70
2023-04-27T07:50:04.761Z,22.80
2023-04-27T07:52:32.487Z,22.30
2023-04-27T07:54:59.264Z,22.10
2023-04-27T07:57:26.184Z,22.20
2023-04-27T07:59:53.213Z,22.30
2023-04-27T08:02:20.496Z,22.40
2023-04-27T08:04:48.228Z,22.00
2023-04-27T08:07:16.365Z,21.70
2023-04-27T08:09:43.341Z,21.60
2023-04-27T08:12:10.190Z,21.80
2023-04-27T08:14:37.127Z,21.80
2023-04-27T08:17:04.005Z,21.50
2023-04-27T08:19:30.889Z,21.10
2023-04-27T08:21:57.680Z,21.40
2023-04-27T08:24:24.492Z,22.00
2023-04-27T08:26:51.419Z,22.00
2023-04-27T08:29:27.115Z,22.10
2023-04-27T08:31:56.722Z,21.20
2023-04-27T08:34:24.142Z,21.30
2023-04-27T08:36:51.236Z,21.50
2023-04-27T08:39:18.365Z,21.70
2023-04-27T08:41:46.375Z,21.40
2023-04-27T08:44:13.352Z,21.30
2023-04-27T08:46:41.028Z,21.00
2023-04-27T08:49:08.258Z,21.30
2023-04-27T08:51:35.311Z,20.70
2023-04-27T08:54:02.405Z,21.10
2023-04-27T08:56:29.854Z,21.10
2023-04-27T08:58:57.317Z,20.30
2023-04-27T09:01:25.248Z,20.30
2023-04-27T09:03:58.941Z,20.70
2023-04-27T09:06:29.719Z,21.10
2023-04-27T09:08:56.578Z,20.40
2023-04-27T09:11:39.392Z,20.60
2023-04-27T09:14:16.685Z,21.30
2023-04-27T09:16:44.595Z,22.00
2023-04-27T09:19:11.913Z,22.20
2023-04-27T09:21:38.942Z,22.50
2023-04-27T09:24:12.932Z,21.60
2023-04-27T09:26:40.755Z,21.40
2023-04-27T09:29:08.143Z,21.60
2023-04-27T09:31:35.916Z,20.60
2023-04-27T09:34:04.495Z,20.70
2023-04-27T09:36:32.783Z,21.20
2023-04-27T09:39:04.474Z,21.40
2023-04-27T09:41:32.432Z,21.10
2023-04-27T09:44:00.183Z,21.60
2023-04-27T09:46:28.780Z,21.50
2023-04-27T09:48:56.272Z,21.40
2023-04-27T09:51:23.071Z,21.30
2023-04-27T09:53:51.670Z,21.20
2023-04-27T09:56:28.483Z,20.90
2023-04-27T09:59:10.526Z,21.40
2023-04-27T10:01:47.705Z,21.10
2023-04-27T10:04:17.712Z,21.50
2023-04-27T10:06:57.903Z,21.40
2023-04-27T10:09:25.456Z,21.30
2023-04-27T10:11:53.184Z,21.60
2023-04-27T10:14:21.747Z,22.10
2023-04-27T10:16:57.809Z,21.80
2023-04-27T10:19:25.243Z,22.50
2023-04-27T10:22:00.583Z,22.30
2023-04-27T10:24:41.004Z,22.20
2023-04-27T10:27:09.129Z,22.60
2023-04-27T10:29:39.039Z,22.90
2023-04-27T10:32:06.499Z,23.00
2023-04-27T10:34:34.899Z,23.00
2023-04-27T10:37:05.742Z,22.50
2023-04-27T10:39:47.784Z,22.90
2023-04-27T10:42:26.119Z,23.40
2023-04-27T10:44:54.867Z,23.00
2023-04-27T10:47:22.136Z,23.10
2023-04-27T10:49:52.467Z,22.90
2023-04-27T10:52:19.305Z,23.10
2023-04-27T10:54:46.499Z,22.80
2023-04-27T10:57:13.463Z,22.80
2023-04-27T10:59:49.885Z,22.80
2023-04-27T11:02:17.208Z,23.20
2023-04-27T11:04:44.086Z,23.40
2023-04-27T11:07:11.193Z,23.50
2023-04-27T11:09:38.584Z,23.80
2023-04-27T11:12:12.138Z,23.50
2023-04-27T11:14:39.785Z,23.70
2023-04-27T11:17:07.340Z,23.20
2023-04-27T11:19:44.012Z,23.10
2023-04-27T11:22:10.871Z,22.90
2023-04-27T11:24:46.059Z,23.50
2023-04-27T11:27:13.172Z,24.00
2023-04-27T11:29:40.438Z,24.50
2023-04-27T11:32:07.555Z,24.50
2023-04-27T11:34:38.769Z,24.60
2023-04-27T11:37:18.010Z,24.80
2023-04-27T11:39:46.092Z,24.40
2023-04-27T11:42:23.209Z,24.30
2023-04-27T11:44:57.196Z,25.20
2023-04-27T11:47:25.420Z,24.60
2023-04-27T11:49:55.229Z,23.90
2023-04-27T11:52:22.650Z,24.50
2023-04-27T11:54:50.777Z,24.90
2023-04-27T11:57:17.668Z,25.00
2023-04-27T11:59:44.504Z,25.10
2023-04-27T12:02:11.915Z,25.40
2023-04-27T12:04:39.043Z,25.20
2023-04-27T12:07:06.084Z,24.90
2023-04-27T12:09:32.908Z,25.00
2023-04-27T12:12:00.110Z,25.50
2023-04-27T12:14:27.029Z,26.10
2023-04-27T12:16:53.977Z,26.40
2023-04-27T12:19:20.947Z,26.70
2023-04-27T12:21:48.004Z,26.70
2023-04-27T12:24:15.076Z,26.90
2023-04-27T12:26:42.102Z,27.10
2023-04-27T12:29:08.924Z,27.00
2023-04-27T12:31:35.809Z,27.00
2023-04-27T12:34:02.719Z,27.10
2023-04-27T12:36:29.805Z,27.20
2023-04-27T12:38:58.578Z,27.20
2023-04-27T12:41:25.635Z,27.60
2023-04-27T12:43:52.661Z,28.20
2023-04-27T12:46:19.594Z,28.70
2023-04-27T12:48:46.725Z,28.90
2023-04-27T12:51:13.654Z,29.00
2023-04-27T12:53:41.208Z,29.50
2023-04-27T12:56:08.100Z,29.00
2023-04-27T12:58:35.107Z,29.30
2023-04-27T13:01:01.958Z,29.50
2023-04-27T13:03:28.880Z,30.00
2023-04-27T13:05:56.275Z,29.90
2023-04-27T13:08:23.839Z,29.80
2023-04-27T13:10:50.770Z,29.00
2023-04-27T13:13:17.956Z,28.90
2023-04-27T13:15:45.046Z,29.40
2023-04-27T13:18:12.277Z,30.50
2023-04-27T13:20:39.623Z,30.70
2023-04-27T13:23:06.707Z,30.80
2023-04-27T13:25:34.269Z,31.00
2023-04-27T13:28:01.516Z,30.80
2023-04-27T13:30:28.424Z,31.20
2023-04-27T13:32:59.725Z,31.40
2023-04-27T13:35:31.409Z,31.60
2023-04-27T13:37:58.292Z,31.60
2023-04-27T13:40:25.107Z,31.60
2023-04-27T13:42:52.384Z,30.70
2023-04-27T13:45:19.183Z,30.60
2023-04-27T13:47:46.056Z,30.40
2023-04-27T13:50:13.265Z,30.40
2023-04-27T13:52:40.632Z,30.50
2023-04-27T13:55:08.549Z,31.50
2023-04-27T13:57:35.504Z,32.30
2023-04-27T14:00:02.706Z,32.40
2023-04-27T14:02:34.447Z,32.40
2023-04-27T14:05:01.433Z,32.30
2023-04-27T14:07:28.302Z,32.60
2023-04-27T14:09:55.183Z,32.60
2023-04-27T14:12:22.250Z,32.80
2023-04-27T14:14:49.103Z,33.00
2023-04-27T14:17:15.933Z,33.40
2023-04-27T14:19:43.028Z,33.70
2023-04-27T14:22:09.844Z,34.10
2023-04-27T14:24:36.859Z,34.00
2023-04-27T14:27:03.670Z,34.30
2023-04-27T14:29:30.703Z,34.60
2023-04-27T14:31:57.975Z,35.00
2023-04-27T14:34:24.816Z,35.30
2023-04-27T14:36:51.723Z,35.30
2023-04-27T14:39:18.606Z,35.60
2023-04-27T14:41:45.462Z,35.30
2023-04-27T14:44:12.305Z,35.10
2023-04-27T14:46:39.267Z,35.20
2023-04-27T14:49:06.128Z,34.50
2023-04-27T14:51:33.265Z,34.50
2023-04-27T14:54:00.152Z,34.90
2023-04-27T14:56:27.024Z,35.00
2023-04-27T14:58:55.255Z,35.00
2023-04-27T15:01:22.352Z,35.30
2023-04-27T15:03:51.118Z,35.60
2023-04-27T15:06:18.128Z,36.40
2023-04-27T15:08:45.678Z,37.20
2023-04-27T15:11:12.505Z,37.50
2023-04-27T15:13:39.403Z,37.70
2023-04-27T15:16:07.303Z,38.30
2023-04-27T15:18:35.311Z,38.50
2023-04-27T15:21:02.175Z,39.00
2023-04-27T15:23:29.072Z,39.30
2023-04-27T15:25:57.298Z,39.60
2023-04-27T15:28:24.513Z,39.50
2023-04-27T15:30:51.533Z,39.50
2023-04-27T15:33:18.719Z,40.10
2023-04-27T15:35:45.609Z,40.50
2023-04-27T15:38:12.904Z,40.80
2023-04-27T15:40:39.729Z,40.70
2023-04-27T15:43:06.951Z,40.70
2023-04-27T15:45:33.755Z,40.80
2023-04-27T15:48:00.744Z,40.80
2023-04-27T15:50:27.775Z,40.80
2023-04-27T15:52:54.629Z,41.10
2023-04-27T15:55:22.077Z,41.30
2023-04-27T15:57:48.928Z,41.50
2023-04-27T16:00:16.974Z,41.60
2023-04-27T16:02:44.147Z,42.00
2023-04-27T16:05:11.241Z,42.20
2023-04-27T16:07:39.804Z,42.10
2023-04-27T16:10:07.220Z,42.10
2023-04-27T16:12:34.053Z,42.50
2023-04-27T16:15:01.024Z,42.90
2023-04-27T16:17:29.128Z,43.20
2023-04-27T16:19:56.013Z,42.50
2023-04-27T16:22:23.505Z,42.70
2023-04-27T16:24:50.572Z,43.00
2023-04-27T16:27:17.558Z,43.40
2023-04-27T16:29:44.438Z,43.40
2023-04-27T16:32:11.267Z,43.80
2023-04-27T16:34:38.313Z,43.50
2023-04-27T16:37:05.640Z,43.60
2023-04-27T16:39:32.925Z,43.70
2023-04-27T16:41:59.740Z,44.00
2023-04-27T16:44:26.893Z,44.20
2023-04-27T16:46:53.706Z,44.40
2023-04-27T16:49:20.608Z,44.70
2023-04-27T16:51:47.549Z,44.90
2023-04-27T16:54:16.562Z,45.40
2023-04-27T16:56:43.646Z,46.00
2023-04-27T16:59:13.381Z,46.50
2023-04-27T17:01:40.566Z,46.90
2023-04-27T17:04:07.637Z,47.10
2023-04-27T17:06:34.914Z,47.50
2023-04-27T17:09:02.024Z,47.70
2023-04-27T17:11:28.861Z,48.00
2023-04-27T17:13:55.806Z,48.30
2023-04-27T17:16:23.517Z,48.50
2023-04-27T17:18:50.487Z,48.90
2023-04-27T17:21:17.492Z,48.90
2023-04-27T17:23:46.641Z,49.00
2023-04-27T17:26:16.003Z,49.20
2023-04-27T17:28:42.934Z,49.60
2023-04-27T17:31:09.756Z,49.90
2023-04-27T17:33:38.052Z,50.10
2023-04-27T17:36:06.838Z,50.20
2023-04-27T17:38:33.682Z,50.70
2023-04-27T17:41:01.632Z,51.40
2023-04-27T17:43:28.542Z,52.00
2023-04-27T17:45:55.475Z,52.40
2023-04-27T17:48:22.501Z,52.80
2023-04-27T17:50:50.255Z,53.30
2023-04-27T17:53:17.129Z,53.70
2023-04-27T17:55:47.833Z,54.10
2023-04-27T17:58:15.563Z,54.50
2023-04-27T18:00:43.050Z,55.00
2023-04-27T18:03:11.133Z,55.50
2023-04-27T18:05:38.208Z,56.00
2023-04-27T18:08:05.099Z,56.30
2023-04-27T18:10:31.900Z,56.70
2023-04-27T18:12:59.960Z,57.30
2023-04-27T18:15:26.924Z,57.80
2023-04-27T18:17:53.845Z,58.20
2023-04-27T18:20:23.259Z,58.70
2023-04-27T18:22:50.655Z,59.20
2023-04-27T18:25:19.727Z,59.80
2023-04-27T18:27:49.698Z,60.40
2023-04-27T18:30:16.628Z,61.00
2023-04-27T18:32:43.613Z,61.40
2023-04-27T18:35:10.430Z,61.70
2023-04-27T18:37:37.244Z,62.10
2023-04-27T18:40:05.930Z,62.50
2023-04-27T18:42:32.958Z,62.60
2023-04-27T18:45:00.851Z,63.10
2023-04-27T18:47:28.153Z,63.60
2023-04-27T18:49:55.156Z,63.90
2023-04-27T18:52:22.153Z,64.30
2023-04-27T18:54:49.115Z,64.60
2023-04-27T18:57:16.075Z,64.90
2023-04-27T18:59:43.126Z,65.00
2023-04-27T19:02:10.065Z,65.30
2023-04-27T19:04:37.312Z,65.50
2023-04-27T19:07:04.919Z,65.60
2023-04-27T19:09:31.954Z,65.60
2023-04-27T19:12:02.987Z,65.70
2023-04-27T19:14:31.887Z,65.90
2023-04-27T19:16:58.934Z,66.10
2023-04-27T19:19:26.811Z,66.30
2023-04-27T19:21:54.198Z,66.20
2023-04-27T19:24:21.358Z,66.20
2023-04-27T19:26:48.461Z,66.40
2023-04-27T19:29:16.119Z,66.40
2023-04-27T19:31:43.652Z,66.40
2023-04-27T19:34:10.889Z,66.40
2023-04-27T19:36:37.843Z,66.40
2023-04-27T19:39:04.816Z,66.40
2023-04-27T19:41:31.753Z,66.40
2023-04-27T19:43:58.734Z,66.50
2023-04-27T19:46:26.676Z,66.50
2023-04-27T19:48:54.338Z,66.50
2023-04-27T19:51:21.463Z,66.60
2023-04-27T19:53:48.424Z,66.60
2023-04-27T19:56:15.741Z,66.70
2023-04-27T19:58:42.693Z,66.80
2023-04-27T20:01:11.149Z,66.90
2023-04-27T20:03:40.190Z,67.00
2023-04-27T20:06:08.809Z,67.00
2023-04-27T20:08:36.232Z,67.00
2023-04-27T20:11:03.155Z,67.00
2023-04-27T20:13:30.284Z,67.00
2023-04-27T20:15:58.238Z,67.10
2023-04-27T20:18:25.674Z,67.20
2023-04-27T20:20:52.595Z,67.20
2023-04-27T20:23:19.647Z,67.30
2023-04-27T20:25:46.768Z,67.40
2023-04-27T20:28:13.728Z,67.30
2023-04-27T20:30:40.826Z,67.30
2023-04-27T20:33:07.962Z,67.50
2023-04-27T20:35:36.305Z,67.50
2023-04-27T20:38:03.308Z,67.70
2023-04-27T20:40:30.874Z,67.70
2023-04-27T20:42:57.888Z,67.60
2023-04-27T20:45:25.488Z,67.70
2023-04-27T20:47:52.825Z,67.80
2023-04-27T20:50:19.896Z,67.80
2023-04-27T20:52:47.140Z,67.80
2023-04-27T20:55:14.150Z,67.90
2023-04-27T20:57:41.101Z,68.00
2023-04-27T21:00:11.302Z,68.20
2023-04-27T21:02:38.342Z,68.40
2023-04-27T21:05:05.734Z,68.50
2023-04-27T21:07:32.755Z,68.70
2023-04-27T21:10:05.975Z,68.80
2023-04-27T21:12:33.838Z,68.90
2023-04-27T21:15:01.119Z,68.90
2023-04-27T21:17:28.617Z,69.00
2023-04-27T21:19:58.008Z,69.20
2023-04-27T21:22:25.085Z,69.20
2023-04-27T21:24:52.666Z,69.30
2023-04-27T21:27:19.699Z,69.40
2023-04-27T21:29:46.690Z,69.50
2023-04-27T21:32:13.759Z,69.50
2023-04-27T21:34:40.738Z,69.60
2023-04-27T21:37:07.675Z,69.60
2023-04-27T21:39:34.641Z,69.70
2023-04-27T21:42:01.606Z,69.70
2023-04-27T21:44:28.530Z,69.70
2023-04-27T21:46:55.458Z,69.80
2023-04-27T21:49:22.378Z,69.90
2023-04-27T21:51:49.288Z,69.90
2023-04-27T21:54:16.418Z,69.80
2023-04-27T21:56:43.432Z,69.70
2023-04-27T21:59:10.418Z,69.70
2023-04-27T22:01:37.912Z,69.70
2023-04-27T22:04:06.430Z,69.70
2023-04-27T22:06:33.571Z,69.70
2023-04-27T22:09:00.908Z,69.70
2023-04-27T22:11:28.169Z,69.70
2023-04-27T22:13:56.267Z,69.60
2023-04-27T22:16:23.264Z,69.50
2023-04-27T22:18:50.362Z,69.40
2023-04-27T22:21:17.291Z,69.50
2023-04-27T22:23:44.201Z,69.50
2023-04-27T22:26:11.110Z,69.50
2023-04-27T22:28:37.986Z,69.50
2023-04-27T22:31:05.528Z,69.60
2023-04-27T22:33:32.797Z,69.80
2023-04-27T22:36:00.116Z,69.80
2023-04-27T22:38:27.075Z,69.90
2023-04-27T22:40:54.053Z,70.00
2023-04-27T22:43:21.773Z,70.10
2023-04-27T22:45:48.684Z,70.20
2023-04-27T22:48:16.320Z,70.30
2023-04-27T22:50:43.230Z,70.40
2023-04-27T22:53:10.190Z,70.50
2023-04-27T22:55:37.124Z,70.70
2023-04-27T22:58:04.158Z,70.80
2023-04-27T23:00:31.271Z,70.90
2023-04-27T23:02:58.367Z,71.10
2023-04-27T23:05:25.517Z,71.10
2023-04-27T23:07:52.535Z,71.20
2023-04-27T23:10:19.434Z,71.40
2023-04-27T23:12:46.753Z,71.60
2023-04-27T23:15:13.753Z,71.60
2023-04-27T23:17:41.280Z,71.80
2023-04-27T23:20:24.040Z,71.90
2023-04-27T23:22:54.148Z,72.00
2023-04-27T23:25:21.545Z,72.10
2023-04-27T23:27:49.957Z,72.30
2023-04-27T23:30:18.731Z,72.40
2023-04-27T23:32:45.667Z,72.60
2023-04-27T23:35:12.984Z,72.70
2023-04-27T23:37:40.026Z,72.80
2023-04-27T23:40:07.745Z,73.00
2023-04-27T23:42:35.181Z,73.10
2023-04-27T23:45:04.137Z,74.00
2023-04-27T23:47:33.907Z,73.30
2023-04-27T23:50:02.320Z,74.20
2023-04-27T23:52:29.673Z,73.60
2023-04-27T23:54:57.998Z,73.60
2023-04-27T23:57:24.994Z,73.90
2023-04-27T23:59:51.938Z,73.90
